createdAt,value
2023-03-27T00:00:01.467Z,14.10
2023-03-27T00:02:29.069Z,14.10
2023-03-27T00:04:56.943Z,14.10
2023-03-27T00:07:24.527Z,14.10
2023-03-27T00:09:53.485Z,14.10
2023-03-27T00:12:20.730Z,14.10
2023-03-27T00:14:48.231Z,14.10
2023-03-27T00:17:15.603Z,14.10
2023-03-27T00:19:43.905Z,14.10
2023-03-27T00:22:11.204Z,14.10
2023-03-27T00:24:40.756Z,14.00
2023-03-27T00:27:10.598Z,14.00
2023-03-27T00:29:40.338Z,14.00
2023-03-27T00:32:10.475Z,14.00
2023-03-27T00:34:37.701Z,14.00
2023-03-27T00:37:05.702Z,14.00
2023-03-27T00:39:35.558Z,13.90
2023-03-27T00:42:05.361Z,13.90
2023-03-27T00:44:34.408Z,13.90
2023-03-27T00:47:04.176Z,13.90
2023-03-27T00:49:38.307Z,13.90
2023-03-27T00:52:08.606Z,13.80
2023-03-27T00:54:40.281Z,13.90
2023-03-27T00:57:09.262Z,13.80
2023-03-27T00:59:40.830Z,13.90
2023-03-27T01:02:09.329Z,13.90
2023-03-27T01:04:38.633Z,13.90
2023-03-27T01:07:07.443Z,13.80
2023-03-27T01:09:37.040Z,13.80
2023-03-27T01:12:32.723Z,13.80
2023-03-27T01:15:12.432Z,13.80
2023-03-27T01:17:58.203Z,13.80
2023-03-27T01:20:44.818Z,13.70
2023-03-27T01:23:35.929Z,13.70
2023-03-27T01:26:39.109Z,13.70
2023-03-27T01:29:13.675Z,13.70
2023-03-27T01:32:11.758Z,13.70
2023-03-27T01:35:06.182Z,13.60
2023-03-27T01:37:53.691Z,13.60
2023-03-27T01:40:33.036Z,13.60
2023-03-27T01:43:22.585Z,13.50
2023-03-27T01:46:18.235Z,13.50
2023-03-27T01:49:00.320Z,13.50
2023-03-27T01:51:37.414Z,13.50
2023-03-27T01:54:12.299Z,13.40
2023-03-27T01:56:46.113Z,13.40
2023-03-27T01:59:17.470Z,13.40
2023-03-27T02:02:09.442Z,13.40
2023-03-27T02:04:47.461Z,13.40
2023-03-27T02:07:21.368Z,13.40
2023-03-27T02:09:54.734Z,13.40
2023-03-27T02:12:27.946Z,13.40
2023-03-27T02:15:22.621Z,13.40
2023-03-27T02:18:36.816Z,13.40
2023-03-27T02:21:06.884Z,13.40
2023-03-27T02:23:37.720Z,13.40
2023-03-27T02:26:09.585Z,13.40
2023-03-27T02:28:56.091Z,13.30
2023-03-27T02:32:05.424Z,13.30
2023-03-27T02:34:50.433Z,13.30
2023-03-27T02:37:37.335Z,13.30
2023-03-27T02:40:28.642Z,13.30
2023-03-27T02:43:03.577Z,13.30
2023-03-27T02:45:43.336Z,13.30
2023-03-27T02:48:34.290Z,13.20
2023-03-27T02:51:07.604Z,13.30
2023-03-27T02:53:55.644Z,13.20
2023-03-27T02:56:26.156Z,13.20
2023-03-27T02:59:10.300Z,13.20
2023-03-27T03:01:41.026Z,13.20
2023-03-27T03:04:20.401Z,13.20
2023-03-27T03:06:47.695Z,13.20
2023-03-27T03:09:16.245Z,13.30
2023-03-27T03:11:54.417Z,13.20
2023-03-27T03:14:31.624Z,13.30
2023-03-27T03:17:01.469Z,13.30
2023-03-27T03:19:28.893Z,13.30
2023-03-27T03:21:58.383Z,13.30
2023-03-27T03:24:27.681Z,13.30
2023-03-27T03:26:55.215Z,13.30
2023-03-27T03:29:22.460Z,13.30
2023-03-27T03:31:49.946Z,13.30
2023-03-27T03:34:19.069Z,13.30
2023-03-27T03:36:50.372Z,13.30
2023-03-27T03:39:18.427Z,13.30
2023-03-27T03:41:45.807Z,13.30
2023-03-27T03:44:15.516Z,13.30
2023-03-27T03:46:42.944Z,13.30
2023-03-27T03:49:10.649Z,13.30
2023-03-27T03:51:38.290Z,13.30
2023-03-27T03:54:06.785Z,13.30
2023-03-27T03:56:37.434Z,13.30
2023-03-27T03:59:07.178Z,13.30
2023-03-27T04:01:34.880Z,13.30
2023-03-27T04:04:02.519Z,13.30
2023-03-27T04:06:31.009Z,13.30
2023-03-27T04:08:58.454Z,13.30
2023-03-27T04:11:25.809Z,13.30
2023-03-27T04:13:53.329Z,13.30
2023-03-27T04:16:24.967Z,13.30
2023-03-27T04:18:55.610Z,13.30
2023-03-27T04:21:26.755Z,13.30
2023-03-27T04:23:54.328Z,13.30
2023-03-27T04:26:26.582Z,13.20
2023-03-27T04:28:54.267Z,13.20
2023-03-27T04:31:21.756Z,13.20
2023-03-27T04:33:52.001Z,13.20
2023-03-27T04:36:19.940Z,13.10
2023-03-27T04:38:48.068Z,13.10
2023-03-27T04:41:21.325Z,13.10
2023-03-27T04:43:48.781Z,13.10
2023-03-27T04:46:19.737Z,13.00
2023-03-27T04:48:50.760Z,13.00
2023-03-27T04:51:18.213Z,13.00
2023-03-27T04:53:47.875Z,13.00
2023-03-27T04:56:16.255Z,13.00
2023-03-27T04:58:45.787Z,12.90
2023-03-27T05:01:15.641Z,12.90
2023-03-27T05:03:43.117Z,12.90
2023-03-27T05:06:12.867Z,12.90
2023-03-27T05:08:40.658Z,12.90
2023-03-27T05:11:08.020Z,12.90
2023-03-27T05:13:35.574Z,12.80
2023-03-27T05:16:03.172Z,12.80
2023-03-27T05:18:33.526Z,12.80
2023-03-27T05:21:01.033Z,12.80
2023-03-27T05:23:28.473Z,12.80
2023-03-27T05:25:59.784Z,12.80
2023-03-27T05:28:28.521Z,12.80
2023-03-27T05:30:58.626Z,12.80
2023-03-27T05:33:31.666Z,12.90
2023-03-27T05:35:59.072Z,12.90
2023-03-27T05:38:26.454Z,12.90
2023-03-27T05:40:56.437Z,12.90
2023-03-27T05:43:23.927Z,12.90
2023-03-27T05:45:53.451Z,12.90
2023-03-27T05:48:20.840Z,12.90
2023-03-27T05:50:48.232Z,12.90
2023-03-27T05:53:18.369Z,12.90
2023-03-27T05:55:46.300Z,12.90
2023-03-27T05:58:14.128Z,12.90
2023-03-27T06:00:44.491Z,12.90
2023-03-27T06:03:13.006Z,12.90
2023-03-27T06:05:43.175Z,13.00
2023-03-27T06:08:13.298Z,13.00
2023-03-27T06:10:43.338Z,13.00
2023-03-27T06:13:13.728Z,13.00
2023-03-27T06:15:43.093Z,13.00
2023-03-27T06:18:11.265Z,13.00
2023-03-27T06:20:39.380Z,13.00
2023-03-27T06:23:07.842Z,13.00
2023-03-27T06:25:39.450Z,13.00
2023-03-27T06:28:09.606Z,13.00
2023-03-27T06:30:38.875Z,13.00
2023-03-27T06:33:10.245Z,13.00
2023-03-27T06:35:43.530Z,13.00
2023-03-27T06:38:21.204Z,13.10
2023-03-27T06:40:49.477Z,13.10
2023-03-27T06:43:22.474Z,13.10
2023-03-27T06:45:52.490Z,13.10
2023-03-27T06:48:22.362Z,13.10
2023-03-27T06:50:52.405Z,13.10
2023-03-27T06:55:51.546Z,13.10
2023-03-27T06:58:21.897Z,13.20
2023-03-27T07:00:50.357Z,13.10
2023-03-27T07:03:22.804Z,13.10
2023-03-27T07:05:50.271Z,13.10
2023-03-27T07:08:23.367Z,13.10
2023-03-27T07:11:10.662Z,13.10
2023-03-27T07:13:42.630Z,13.10
2023-03-27T07:16:13.930Z,13.10
2023-03-27T07:18:42.087Z,13.10
2023-03-27T07:21:09.827Z,13.10
2023-03-27T07:23:39.352Z,13.10
2023-03-27T07:26:07.237Z,13.10
2023-03-27T07:28:38.333Z,13.10
2023-03-27T07:31:25.896Z,13.10
2023-03-27T07:34:05.310Z,13.10
2023-03-27T07:36:36.433Z,13.10
2023-03-27T07:39:06.976Z,13.10
2023-03-27T07:41:34.370Z,13.10
2023-03-27T07:44:01.887Z,13.00
2023-03-27T07:46:29.393Z,13.00
2023-03-27T07:48:59.392Z,13.00
2023-03-27T07:51:28.856Z,13.00
2023-03-27T07:53:58.915Z,13.00
2023-03-27T07:56:26.707Z,13.00
2023-03-27T07:58:55.236Z,13.00
2023-03-27T08:01:22.760Z,13.00
2023-03-27T08:03:50.237Z,13.00
2023-03-27T08:06:18.868Z,13.00
2023-03-27T08:08:46.293Z,13.00
2023-03-27T08:11:27.397Z,13.00
2023-03-27T08:14:02.350Z,13.00
2023-03-27T08:16:30.386Z,13.00
2023-03-27T08:19:02.167Z,12.90
2023-03-27T08:21:33.396Z,12.90
2023-03-27T08:24:03.482Z,12.90
2023-03-27T08:26:33.667Z,12.90
2023-03-27T08:29:03.787Z,12.90
2023-03-27T08:31:31.664Z,12.90
2023-03-27T08:34:02.122Z,12.90
2023-03-27T08:36:32.055Z,12.90
2023-03-27T08:39:02.960Z,12.80
2023-03-27T08:41:42.979Z,12.80
2023-03-27T08:44:16.147Z,12.80
2023-03-27T08:46:46.824Z,12.80
2023-03-27T08:49:21.261Z,12.80
2023-03-27T08:52:07.142Z,12.80
2023-03-27T08:54:36.842Z,12.80
2023-03-27T08:57:23.337Z,12.80
2023-03-27T08:59:57.685Z,12.70
2023-03-27T09:02:45.121Z,12.70
2023-03-27T09:05:23.444Z,12.70
2023-03-27T09:08:01.722Z,12.70
2023-03-27T09:10:47.236Z,12.70
2023-03-27T09:13:36.154Z,12.70
2023-03-27T09:16:16.147Z,12.70
2023-03-27T09:19:20.356Z,12.70
2023-03-27T09:22:06.285Z,12.70
2023-03-27T09:24:41.900Z,12.70
2023-03-27T09:27:38.401Z,12.70
2023-03-27T09:30:11.947Z,12.70
2023-03-27T09:32:39.879Z,12.70
2023-03-27T09:35:07.698Z,12.70
2023-03-27T09:37:37.603Z,12.80
2023-03-27T09:40:18.138Z,12.70
2023-03-27T09:42:48.480Z,12.70
2023-03-27T09:45:18.683Z,12.70
2023-03-27T09:47:53.150Z,12.70
2023-03-27T09:50:27.399Z,12.70
2023-03-27T09:53:08.522Z,12.70
2023-03-27T09:55:44.794Z,12.70
2023-03-27T09:58:44.134Z,12.60
2023-03-27T10:01:34.620Z,12.60
2023-03-27T10:04:31.685Z,12.70
2023-03-27T10:07:08.406Z,12.60
2023-03-27T10:09:38.425Z,12.60
2023-03-27T10:12:06.511Z,12.60
2023-03-27T10:14:49.077Z,12.50
2023-03-27T10:17:31.009Z,12.50
2023-03-27T10:20:13.421Z,12.50
2023-03-27T10:22:42.743Z,12.50
2023-03-27T10:25:19.628Z,12.50
2023-03-27T10:27:47.397Z,12.50
2023-03-27T10:30:33.128Z,12.50
2023-03-27T10:33:00.675Z,12.50
2023-03-27T10:35:33.515Z,12.50
2023-03-27T10:38:14.252Z,12.50
2023-03-27T10:40:48.142Z,12.50
2023-03-27T10:43:24.784Z,12.50
2023-03-27T10:46:13.606Z,12.50
2023-03-27T10:49:18.630Z,12.50
2023-03-27T10:51:54.196Z,12.50
2023-03-27T10:54:27.927Z,12.50
2023-03-27T10:57:22.340Z,12.50
2023-03-27T11:00:22.707Z,12.50
2023-03-27T11:03:00.159Z,12.60
2023-03-27T11:05:39.056Z,12.60
2023-03-27T11:08:15.883Z,12.60
2023-03-27T11:10:47.667Z,12.70
2023-03-27T11:13:18.435Z,12.70
2023-03-27T11:15:55.228Z,12.80
2023-03-27T11:18:29.840Z,12.80
2023-03-27T11:21:05.309Z,12.80
2023-03-27T11:23:44.613Z,12.80
2023-03-27T11:26:18.375Z,12.80
2023-03-27T11:28:56.649Z,12.80
2023-03-27T11:31:39.040Z,12.80
2023-03-27T11:34:28.994Z,12.80
2023-03-27T11:37:20.372Z,12.80
2023-03-27T11:39:51.748Z,12.80
2023-03-27T11:42:28.317Z,12.80
2023-03-27T11:44:56.922Z,12.70
2023-03-27T11:47:41.922Z,12.70
2023-03-27T11:50:42.093Z,12.70
2023-03-27T11:53:18.367Z,12.70
2023-03-27T11:56:07.769Z,12.60
2023-03-27T11:58:38.865Z,12.60
2023-03-27T12:01:28.181Z,12.60
2023-03-27T12:04:17.599Z,12.50
2023-03-27T12:07:04.263Z,12.50
2023-03-27T12:09:36.904Z,12.50
2023-03-27T12:12:07.441Z,12.60
2023-03-27T12:14:49.732Z,12.60
2023-03-27T12:17:58.228Z,12.60
2023-03-27T12:20:54.025Z,12.60
2023-03-27T12:23:45.989Z,12.70
2023-03-27T12:26:22.314Z,12.80
2023-03-27T12:29:23.523Z,12.80
2023-03-27T12:32:27.083Z,12.90
2023-03-27T12:34:59.781Z,12.90
2023-03-27T12:37:31.188Z,13.00
2023-03-27T12:40:00.159Z,13.10
2023-03-27T12:42:52.009Z,13.20
2023-03-27T12:45:28.008Z,13.30
2023-03-27T12:48:19.664Z,13.40
2023-03-27T12:50:53.627Z,13.30
2023-03-27T12:53:26.804Z,13.40
2023-03-27T12:56:30.240Z,13.40
2023-03-27T12:58:58.367Z,13.40
2023-03-27T13:01:53.433Z,13.40
2023-03-27T13:04:34.176Z,13.40
2023-03-27T13:07:22.262Z,13.40
2023-03-27T13:09:57.334Z,13.30
2023-03-27T13:12:42.505Z,13.30
2023-03-27T13:15:22.484Z,13.20
2023-03-27T13:18:17.029Z,13.30
2023-03-27T13:21:00.659Z,13.20
2023-03-27T13:23:57.206Z,13.20
2023-03-27T13:26:50.218Z,13.20
2023-03-27T13:29:24.604Z,13.20
2023-03-27T13:31:59.659Z,13.20
2023-03-27T13:34:29.120Z,13.20
2023-03-27T13:37:14.303Z,13.20
2023-03-27T13:40:12.144Z,13.20
2023-03-27T13:42:43.984Z,13.20
2023-03-27T13:45:17.618Z,13.20
2023-03-27T13:48:09.225Z,13.20
2023-03-27T13:51:16.832Z,13.20
2023-03-27T13:54:14.057Z,13.20
2023-03-27T13:57:01.127Z,13.20
2023-03-27T13:59:40.004Z,13.20
2023-03-27T14:02:54.039Z,13.20
2023-03-27T14:05:37.474Z,13.20
2023-03-27T14:08:31.788Z,13.20
2023-03-27T14:11:23.815Z,13.20
2023-03-27T14:14:22.522Z,13.20
2023-03-27T14:16:56.353Z,13.20
2023-03-27T14:19:34.657Z,13.30
2023-03-27T14:22:23.662Z,13.20
2023-03-27T14:25:03.843Z,13.20
2023-03-27T14:27:34.606Z,13.20
2023-03-27T14:30:20.582Z,13.20
2023-03-27T14:32:49.097Z,13.20
2023-03-27T14:35:32.834Z,13.20
2023-03-27T14:38:03.634Z,13.20
2023-03-27T14:40:39.386Z,13.20
2023-03-27T14:43:08.025Z,13.20
2023-03-27T14:45:40.842Z,13.20
2023-03-27T14:48:12.050Z,13.20
2023-03-27T14:50:39.869Z,13.20
2023-03-27T14:53:10.724Z,13.10
2023-03-27T14:55:42.550Z,13.10
2023-03-27T14:58:19.361Z,13.10
2023-03-27T15:00:58.197Z,13.10
2023-03-27T15:03:35.537Z,13.10
2023-03-27T15:06:13.411Z,13.00
2023-03-27T15:08:46.541Z,13.00
2023-03-27T15:11:23.198Z,13.00
2023-03-27T15:13:50.800Z,13.00
2023-03-27T15:16:22.620Z,13.00
2023-03-27T15:18:58.692Z,13.00
2023-03-27T15:21:39.018Z,13.00
2023-03-27T15:24:15.315Z,13.00
2023-03-27T15:26:44.828Z,13.00
2023-03-27T15:29:14.986Z,12.90
2023-03-27T15:31:51.061Z,12.90
2023-03-27T15:34:47.264Z,12.90
2023-03-27T15:37:24.982Z,12.90
2023-03-27T15:40:13.523Z,12.80
2023-03-27T15:42:47.456Z,12.80
2023-03-27T15:45:21.410Z,12.80
2023-03-27T15:48:05.631Z,12.80
2023-03-27T15:50:34.081Z,12.70
2023-03-27T15:53:06.732Z,12.70
2023-03-27T15:55:44.077Z,12.70
2023-03-27T15:58:54.702Z,12.70
2023-03-27T16:01:34.817Z,12.70
2023-03-27T16:04:08.927Z,12.60
2023-03-27T16:06:47.592Z,12.60
2023-03-27T16:09:23.548Z,12.60
2023-03-27T16:11:52.810Z,12.60
2023-03-27T16:14:28.798Z,12.60
2023-03-27T16:17:19.797Z,12.60
2023-03-27T16:20:21.432Z,12.60
2023-03-27T16:22:52.402Z,12.50
2023-03-27T16:25:19.733Z,12.60
2023-03-27T16:27:50.258Z,12.60
2023-03-27T16:30:41.168Z,12.50
2023-03-27T16:33:16.684Z,12.50
2023-03-27T16:35:45.446Z,12.50
2023-03-27T16:38:14.008Z,12.60
2023-03-27T16:40:42.113Z,12.60
2023-03-27T16:43:11.785Z,12.60
2023-03-27T16:45:39.361Z,12.60
2023-03-27T16:48:09.057Z,12.60
2023-03-27T16:50:36.457Z,12.60
2023-03-27T16:53:04.140Z,12.60
2023-03-27T16:55:34.005Z,12.60
2023-03-27T16:58:04.604Z,12.60
2023-03-27T17:00:36.703Z,12.50
2023-03-27T17:03:06.968Z,12.50
2023-03-27T17:05:36.779Z,12.50
2023-03-27T17:08:06.716Z,12.50
2023-03-27T17:10:34.735Z,12.40
2023-03-27T17:13:02.110Z,12.40
2023-03-27T17:15:29.782Z,12.30
2023-03-27T17:17:57.321Z,12.30
2023-03-27T17:20:24.711Z,12.30
2023-03-27T17:22:54.301Z,12.20
2023-03-27T17:25:21.668Z,12.20
2023-03-27T17:27:49.235Z,12.10
2023-03-27T17:30:30.405Z,12.10
2023-03-27T17:33:03.317Z,12.00
2023-03-27T17:35:31.481Z,12.00
2023-03-27T17:38:03.695Z,11.90
2023-03-27T17:40:31.041Z,11.90
2023-03-27T17:42:58.363Z,11.90
2023-03-27T17:45:26.396Z,11.80
2023-03-27T17:47:53.733Z,11.80
2023-03-27T17:50:25.385Z,11.80
2023-03-27T17:52:52.750Z,11.70
2023-03-27T17:55:22.330Z,11.70
2023-03-27T17:58:01.769Z,11.70
2023-03-27T18:00:42.836Z,11.60
2023-03-27T18:03:10.556Z,11.60
2023-03-27T18:05:39.020Z,11.60
2023-03-27T18:08:07.367Z,11.60
2023-03-27T18:10:35.537Z,11.50
2023-03-27T18:13:03.133Z,11.50
2023-03-27T18:15:30.929Z,11.40
2023-03-27T18:18:03.407Z,11.40
2023-03-27T18:20:35.968Z,11.40
2023-03-27T18:23:06.218Z,11.40
2023-03-27T18:25:33.618Z,11.40
2023-03-27T18:28:01.299Z,11.30
2023-03-27T18:30:32.380Z,11.30
2023-03-27T18:32:59.824Z,11.30
2023-03-27T18:35:27.192Z,11.30
2023-03-27T18:37:59.665Z,11.30
2023-03-27T18:40:32.747Z,11.30
2023-03-27T18:43:00.205Z,11.20
2023-03-27T18:45:27.724Z,11.20
2023-03-27T18:47:55.176Z,11.20
2023-03-27T18:50:22.578Z,11.20
2023-03-27T18:52:49.942Z,11.20
2023-03-27T18:55:17.458Z,11.10
2023-03-27T18:57:45.420Z,11.10
2023-03-27T19:00:20.365Z,11.10
2023-03-27T19:02:50.992Z,11.00
2023-03-27T19:05:18.632Z,11.00
2023-03-27T19:07:48.310Z,11.00
2023-03-27T19:10:18.486Z,11.00
2023-03-27T19:12:46.037Z,10.90
2023-03-27T19:15:20.168Z,10.90
2023-03-27T19:17:47.840Z,10.90
2023-03-27T19:20:20.805Z,10.80
2023-03-27T19:22:51.179Z,10.80
2023-03-27T19:25:18.588Z,10.80
2023-03-27T19:27:46.006Z,10.80
2023-03-27T19:30:14.691Z,10.70
2023-03-27T19:32:42.197Z,10.70
2023-03-27T19:35:09.973Z,10.70
2023-03-27T19:37:37.693Z,10.60
2023-03-27T19:40:09.092Z,10.60
2023-03-27T19:42:36.573Z,10.60
2023-03-27T19:45:05.054Z,10.50
2023-03-27T19:47:37.473Z,10.50
2023-03-27T19:50:08.653Z,10.40
2023-03-27T19:52:38.332Z,10.40
2023-03-27T19:55:08.559Z,10.40
2023-03-27T19:57:35.947Z,10.40
2023-03-27T20:00:10.826Z,10.40
2023-03-27T20:02:41.079Z,10.40
2023-03-27T20:05:08.810Z,10.40
2023-03-27T20:07:36.086Z,10.30
2023-03-27T20:10:04.699Z,10.30
2023-03-27T20:12:33.127Z,10.30
2023-03-27T20:15:11.176Z,10.30
2023-03-27T20:17:39.985Z,10.30
2023-03-27T20:20:10.998Z,10.30
2023-03-27T20:22:56.387Z,10.30
2023-03-27T20:25:25.395Z,10.20
2023-03-27T20:27:55.981Z,10.20
2023-03-27T20:30:23.506Z,10.20
2023-03-27T20:32:53.520Z,10.20
2023-03-27T20:35:25.017Z,10.10
2023-03-27T20:37:57.825Z,10.10
2023-03-27T20:40:26.137Z,10.10
2023-03-27T20:43:03.482Z,10.10
2023-03-27T20:45:31.529Z,10.10
2023-03-27T20:48:04.381Z,10.10
2023-03-27T20:50:35.343Z,10.10
2023-03-27T20:53:04.795Z,10.00
2023-03-27T20:55:36.108Z,10.00
2023-03-27T20:58:11.571Z,10.00
2023-03-27T21:00:43.765Z,10.00
2023-03-27T21:03:16.551Z,10.00
2023-03-27T21:05:44.751Z,10.00
2023-03-27T21:08:12.744Z,9.90
2023-03-27T21:10:40.748Z,9.90
2023-03-27T21:13:08.571Z,9.90
2023-03-27T21:15:36.315Z,9.90
2023-03-27T21:18:06.212Z,9.90
2023-03-27T21:20:35.409Z,9.90
2023-03-27T21:23:02.988Z,9.90
2023-03-27T21:25:30.486Z,9.90
2023-03-27T21:28:03.234Z,9.90
2023-03-27T21:30:46.208Z,9.90
2023-03-27T21:33:18.540Z,10.00
2023-03-27T21:35:47.470Z,10.00
2023-03-27T21:38:21.135Z,10.00
2023-03-27T21:40:48.536Z,10.00
2023-03-27T21:43:18.556Z,10.00
2023-03-27T21:45:49.283Z,10.00
2023-03-27T21:48:16.964Z,10.00
2023-03-27T21:50:44.678Z,10.00
2023-03-27T21:53:12.106Z,10.10
2023-03-27T21:55:39.583Z,10.10
2023-03-27T21:58:06.979Z,10.10
2023-03-27T22:00:36.837Z,10.10
2023-03-27T22:03:04.349Z,10.10
2023-03-27T22:05:35.191Z,10.10
2023-03-27T22:08:02.508Z,10.10
2023-03-27T22:10:30.223Z,10.10
2023-03-27T22:12:57.845Z,10.10
2023-03-27T22:15:30.027Z,10.20
2023-03-27T22:17:57.512Z,10.20
2023-03-27T22:20:25.287Z,10.20
2023-03-27T22:22:55.169Z,10.20
2023-03-27T22:25:22.497Z,10.20
2023-03-27T22:27:50.706Z,10.20
2023-03-27T22:30:18.174Z,10.20
2023-03-27T22:32:47.661Z,10.20
2023-03-27T22:35:15.334Z,10.20
2023-03-27T22:37:42.777Z,10.20
2023-03-27T22:40:12.843Z,10.20
2023-03-27T22:42:40.308Z,10.20
2023-03-27T22:45:10.479Z,10.20
2023-03-27T22:47:37.942Z,10.20
2023-03-27T22:50:06.467Z,10.20
2023-03-27T22:52:36.045Z,10.20
2023-03-27T22:55:06.100Z,10.20
2023-03-27T22:57:36.275Z,10.20
2023-03-27T23:00:06.128Z,10.20
2023-03-27T23:02:33.683Z,10.20
2023-03-27T23:05:01.079Z,10.20
2023-03-27T23:07:28.391Z,10.20
2023-03-27T23:09:56.138Z,10.20
2023-03-27T23:12:25.768Z,10.20
2023-03-27T23:14:53.088Z,10.10
2023-03-27T23:17:24.994Z,10.10
2023-03-27T23:19:54.759Z,10.10
2023-03-27T23:22:22.125Z,10.10
2023-03-27T23:24:51.873Z,10.10
2023-03-27T23:27:21.392Z,10.10
2023-03-27T23:29:51.012Z,10.10
2023-03-27T23:32:19.961Z,10.10
2023-03-27T23:34:47.412Z,10.20
2023-03-27T23:37:14.960Z,10.10
2023-03-27T23:39:42.347Z,10.10
2023-03-27T23:42:09.961Z,10.10
2023-03-27T23:44:37.453Z,10.10
2023-03-27T23:47:05.340Z,10.10
2023-03-27T23:49:32.652Z,10.10
2023-03-27T23:51:59.955Z,10.10
2023-03-27T23:54:29.906Z,10.10
2023-03-27T23:56:57.306Z,10.10
2023-03-27T23:59:24.589Z,10.10
